createdAt,value
2022-12-31T00:02:18.493Z,13.10
2022-12-31T00:04:45.096Z,13.10
2022-12-31T00:07:11.611Z,13.13
2022-12-31T00:09:38.153Z,13.10
2022-12-31T00:12:04.683Z,13.09
2022-12-31T00:14:31.248Z,13.09
2022-12-31T00:16:57.791Z,13.00
2022-12-31T00:19:24.387Z,13.03
2022-12-31T00:21:50.889Z,13.04
2022-12-31T00:24:17.935Z,13.13
2022-12-31T00:26:44.513Z,13.15
2022-12-31T00:29:11.090Z,13.17
2022-12-31T00:31:38.215Z,13.23
2022-12-31T00:34:04.910Z,13.16
2022-12-31T00:36:35.182Z,13.26
2022-12-31T00:39:02.743Z,13.25
2022-12-31T00:41:29.382Z,13.29
2022-12-31T00:44:01.541Z,13.30
2022-12-31T00:46:28.116Z,13.42
2022-12-31T00:48:54.863Z,13.39
2022-12-31T00:51:22.193Z,13.43
2022-12-31T00:53:48.716Z,13.45
2022-12-31T00:56:16.062Z,13.48
2022-12-31T00:58:42.620Z,13.42
2022-12-31T01:01:12.993Z,13.43
2022-12-31T01:03:39.654Z,13.48
2022-12-31T01:06:06.525Z,13.51
2022-12-31T01:08:33.263Z,13.50
2022-12-31T01:11:19.167Z,13.61
2022-12-31T01:13:50.027Z,13.65
2022-12-31T01:16:16.932Z,13.68
2022-12-31T01:18:43.461Z,13.51
2022-12-31T01:21:10.875Z,13.53
2022-12-31T01:23:39.554Z,13.54
2022-12-31T01:26:06.912Z,13.44
2022-12-31T01:28:33.657Z,13.60
2022-12-31T01:31:03.229Z,13.42
2022-12-31T01:33:29.752Z,13.49
2022-12-31T01:35:56.252Z,13.67
2022-12-31T01:38:22.748Z,13.61
2022-12-31T01:40:49.254Z,13.65
2022-12-31T01:43:17.575Z,13.59
2022-12-31T01:45:44.893Z,13.65
2022-12-31T01:48:12.266Z,13.58
2022-12-31T01:50:39.963Z,13.68
2022-12-31T01:53:06.820Z,13.75
2022-12-31T01:55:34.022Z,13.67
2022-12-31T01:58:07.696Z,13.57
2022-12-31T02:00:34.228Z,13.45
2022-12-31T02:03:00.889Z,13.54
2022-12-31T02:05:29.737Z,13.53
2022-12-31T02:07:56.248Z,13.54
2022-12-31T02:10:22.793Z,13.47
2022-12-31T02:12:49.294Z,13.48
2022-12-31T02:15:15.863Z,13.35
2022-12-31T02:17:45.455Z,13.34
2022-12-31T02:20:32.721Z,13.48
2022-12-31T02:23:05.024Z,13.44
2022-12-31T02:25:31.593Z,13.43
2022-12-31T02:28:04.442Z,13.38
2022-12-31T02:30:31.371Z,13.55
2022-12-31T02:33:06.568Z,13.59
2022-12-31T02:35:56.358Z,13.69
2022-12-31T02:38:24.108Z,13.76
2022-12-31T02:40:50.873Z,13.89
2022-12-31T02:43:17.438Z,13.90
2022-12-31T02:45:45.348Z,13.91
2022-12-31T02:48:17.546Z,14.00
2022-12-31T02:50:55.834Z,14.05
2022-12-31T02:53:30.779Z,13.90
2022-12-31T02:56:03.334Z,13.76
2022-12-31T02:58:51.568Z,13.70
2022-12-31T03:01:39.010Z,13.48
2022-12-31T03:04:24.377Z,13.58
2022-12-31T03:06:51.477Z,13.44
2022-12-31T03:09:18.001Z,13.34
2022-12-31T03:12:02.969Z,13.23
2022-12-31T03:14:29.497Z,13.30
2022-12-31T03:16:56.022Z,13.22
2022-12-31T03:19:41.317Z,13.17
2022-12-31T03:22:26.678Z,13.08
2022-12-31T03:25:19.741Z,13.24
2022-12-31T03:27:47.237Z,13.26
2022-12-31T03:30:14.629Z,13.35
2022-12-31T03:32:41.488Z,13.33
2022-12-31T03:35:08.404Z,13.26
2022-12-31T03:37:34.954Z,13.20
2022-12-31T03:40:01.606Z,13.18
2022-12-31T03:42:28.175Z,13.21
2022-12-31T03:44:54.771Z,13.43
2022-12-31T03:47:21.336Z,13.54
2022-12-31T03:49:47.854Z,13.62
2022-12-31T03:52:14.354Z,13.59
2022-12-31T03:54:40.897Z,13.63
2022-12-31T03:57:07.433Z,13.70
2022-12-31T03:59:34.004Z,13.87
2022-12-31T04:02:00.550Z,13.98
2022-12-31T04:04:27.123Z,14.05
2022-12-31T04:06:53.839Z,14.05
2022-12-31T04:09:20.367Z,14.11
2022-12-31T04:11:46.906Z,14.22
2022-12-31T04:14:13.519Z,14.28
2022-12-31T04:16:40.074Z,14.30
2022-12-31T04:19:07.067Z,14.33
2022-12-31T04:21:35.323Z,14.36
2022-12-31T04:24:02.711Z,14.34
2022-12-31T04:26:29.352Z,14.33
2022-12-31T04:28:55.874Z,14.33
2022-12-31T04:31:22.490Z,14.43
2022-12-31T04:33:49.083Z,14.55
2022-12-31T04:36:15.574Z,14.54
2022-12-31T04:38:42.127Z,14.51
2022-12-31T04:41:17.809Z,14.62
2022-12-31T04:43:45.619Z,14.57
2022-12-31T04:46:12.176Z,14.56
2022-12-31T04:48:38.698Z,14.53
2022-12-31T04:51:05.235Z,14.55
2022-12-31T04:53:31.831Z,14.39
2022-12-31T04:55:58.369Z,14.26
2022-12-31T04:58:24.897Z,14.30
2022-12-31T05:00:52.717Z,14.31
2022-12-31T05:03:19.260Z,14.33
2022-12-31T05:05:45.842Z,14.34
2022-12-31T05:08:12.366Z,14.36
2022-12-31T05:10:42.855Z,14.34
2022-12-31T05:13:09.366Z,14.37
2022-12-31T05:15:35.858Z,14.19
2022-12-31T05:18:02.510Z,14.07
2022-12-31T05:20:29.067Z,14.03
2022-12-31T05:22:55.658Z,13.94
2022-12-31T05:25:22.538Z,13.99
2022-12-31T05:27:49.037Z,14.03
2022-12-31T05:30:15.682Z,14.17
2022-12-31T05:32:42.191Z,14.17
2022-12-31T05:35:08.986Z,14.09
2022-12-31T05:37:35.532Z,14.10
2022-12-31T05:40:02.086Z,14.05
2022-12-31T05:42:28.883Z,14.13
2022-12-31T05:44:55.427Z,14.12
2022-12-31T05:47:22.018Z,14.04
2022-12-31T05:49:48.562Z,14.04
2022-12-31T05:52:15.139Z,14.23
2022-12-31T05:54:41.655Z,14.22
2022-12-31T05:57:08.182Z,14.18
2022-12-31T05:59:34.821Z,14.13
2022-12-31T06:02:01.370Z,14.25
2022-12-31T06:04:27.883Z,14.19
2022-12-31T06:06:54.409Z,14.27
2022-12-31T06:09:21.096Z,14.24
2022-12-31T06:11:47.621Z,14.27
2022-12-31T06:14:14.224Z,14.30
2022-12-31T06:16:40.917Z,14.38
2022-12-31T06:19:07.446Z,14.36
2022-12-31T06:21:34.028Z,14.38
2022-12-31T06:24:00.518Z,14.46
2022-12-31T06:26:27.645Z,14.50
2022-12-31T06:28:54.293Z,14.50
2022-12-31T06:31:20.869Z,14.57
2022-12-31T06:33:47.354Z,14.36
2022-12-31T06:36:14.361Z,14.42
2022-12-31T06:38:41.679Z,14.55
2022-12-31T06:41:10.244Z,14.50
2022-12-31T06:43:37.013Z,14.53
2022-12-31T06:46:04.246Z,14.64
2022-12-31T06:48:30.858Z,14.64
2022-12-31T06:50:57.505Z,14.84
2022-12-31T06:53:24.047Z,14.67
2022-12-31T06:55:50.686Z,14.76
2022-12-31T06:58:17.357Z,14.70
2022-12-31T07:00:52.612Z,14.83
2022-12-31T07:03:38.032Z,14.68
2022-12-31T07:06:14.045Z,14.66
2022-12-31T07:08:43.602Z,14.68
2022-12-31T07:11:12.815Z,14.64
2022-12-31T07:13:48.137Z,14.73
2022-12-31T07:16:18.529Z,14.71
2022-12-31T07:18:53.201Z,14.79
2022-12-31T07:21:21.815Z,14.81
2022-12-31T07:23:49.769Z,14.66
2022-12-31T07:26:22.821Z,14.95
2022-12-31T07:28:51.404Z,14.90
2022-12-31T07:31:22.994Z,14.93
2022-12-31T07:33:59.592Z,14.85
2022-12-31T07:36:32.377Z,14.87
2022-12-31T07:39:13.221Z,14.99
2022-12-31T07:41:51.972Z,14.96
2022-12-31T07:44:37.032Z,14.88
2022-12-31T07:47:04.837Z,14.95
2022-12-31T07:49:31.741Z,14.96
2022-12-31T07:51:58.401Z,14.87
2022-12-31T07:54:24.984Z,14.95
2022-12-31T07:56:51.489Z,14.94
2022-12-31T07:59:38.454Z,15.15
2022-12-31T08:02:07.449Z,15.19
2022-12-31T08:04:38.037Z,15.08
2022-12-31T08:07:04.574Z,14.97
2022-12-31T08:09:39.905Z,15.15
2022-12-31T08:12:07.175Z,15.20
2022-12-31T08:14:42.140Z,15.41
2022-12-31T08:17:10.334Z,15.45
2022-12-31T08:19:36.986Z,15.48
2022-12-31T08:22:22.078Z,15.70
2022-12-31T08:24:57.889Z,15.69
2022-12-31T08:27:28.659Z,15.76
2022-12-31T08:30:01.235Z,15.87
2022-12-31T08:32:31.244Z,15.95
2022-12-31T08:35:06.919Z,15.91
2022-12-31T08:37:37.511Z,15.75
2022-12-31T08:40:13.181Z,15.89
2022-12-31T08:43:02.818Z,15.85
2022-12-31T08:45:32.491Z,15.69
2022-12-31T08:48:03.315Z,15.68
2022-12-31T08:50:30.166Z,15.68
2022-12-31T08:52:56.802Z,15.83
2022-12-31T08:55:23.428Z,15.83
2022-12-31T08:58:08.535Z,15.92
2022-12-31T09:00:35.482Z,15.80
2022-12-31T09:03:11.158Z,15.97
2022-12-31T09:05:43.474Z,16.11
2022-12-31T09:08:21.908Z,16.06
2022-12-31T09:10:54.274Z,16.10
2022-12-31T09:13:40.984Z,16.00
2022-12-31T09:16:07.479Z,16.19
2022-12-31T09:18:34.999Z,16.18
2022-12-31T09:21:01.610Z,16.14
2022-12-31T09:23:28.162Z,16.09
2022-12-31T09:26:07.576Z,16.32
2022-12-31T09:28:40.628Z,16.50
2022-12-31T09:31:14.155Z,16.61
2022-12-31T09:33:45.254Z,16.72
2022-12-31T09:36:14.640Z,16.67
2022-12-31T09:38:45.103Z,16.83
2022-12-31T09:41:16.383Z,16.96
2022-12-31T09:44:00.888Z,16.93
2022-12-31T09:46:46.534Z,16.81
2022-12-31T09:49:31.719Z,16.95
2022-12-31T09:52:04.014Z,16.92
2022-12-31T09:54:39.556Z,16.95
2022-12-31T09:57:17.159Z,17.27
2022-12-31T09:59:53.179Z,17.31
2022-12-31T10:02:29.123Z,17.40
2022-12-31T10:05:11.992Z,17.48
2022-12-31T10:07:50.428Z,17.51
2022-12-31T10:10:18.955Z,17.62
2022-12-31T10:12:59.138Z,17.87
2022-12-31T10:15:33.014Z,18.11
2022-12-31T10:18:17.845Z,18.14
2022-12-31T10:20:45.554Z,17.94
2022-12-31T10:23:24.506Z,17.89
2022-12-31T10:26:02.980Z,17.87
2022-12-31T10:28:30.972Z,17.89
2022-12-31T10:31:03.093Z,17.68
2022-12-31T10:33:42.033Z,17.88
2022-12-31T10:36:09.532Z,17.97
2022-12-31T10:38:45.811Z,18.10
2022-12-31T10:41:31.207Z,18.18
2022-12-31T10:44:06.762Z,18.61
2022-12-31T10:46:51.879Z,18.94
2022-12-31T10:49:18.322Z,19.14
2022-12-31T10:51:53.965Z,18.98
2022-12-31T10:54:26.665Z,19.08
2022-12-31T10:57:07.350Z,18.80
2022-12-31T10:59:54.202Z,18.82
2022-12-31T11:02:26.933Z,18.81
2022-12-31T11:05:20.793Z,18.92
2022-12-31T11:07:47.255Z,18.59
2022-12-31T11:10:36.910Z,18.89
2022-12-31T11:13:15.369Z,18.81
2022-12-31T11:15:51.584Z,18.99
2022-12-31T11:18:23.746Z,18.88
2022-12-31T11:20:56.460Z,18.76
2022-12-31T11:23:41.679Z,18.76
2022-12-31T11:26:11.057Z,18.74
2022-12-31T11:28:37.611Z,18.78
2022-12-31T11:31:10.404Z,18.84
2022-12-31T11:33:50.620Z,18.95
2022-12-31T11:36:25.666Z,18.81
2022-12-31T11:39:11.164Z,18.82
2022-12-31T11:41:46.767Z,18.96
2022-12-31T11:44:18.416Z,18.89
2022-12-31T11:47:03.485Z,18.83
2022-12-31T11:49:38.903Z,18.76
2022-12-31T11:52:25.659Z,18.77
2022-12-31T11:54:54.267Z,18.97
2022-12-31T11:57:29.982Z,18.94
2022-12-31T12:00:00.892Z,18.92
2022-12-31T12:02:37.231Z,19.01
2022-12-31T12:05:10.618Z,18.78
2022-12-31T12:07:38.043Z,18.86
2022-12-31T12:10:07.445Z,18.85
2022-12-31T12:12:40.688Z,18.96
2022-12-31T12:15:07.992Z,19.05
2022-12-31T12:17:34.514Z,19.00
2022-12-31T12:20:02.380Z,19.20
2022-12-31T12:22:29.880Z,19.20
2022-12-31T12:24:58.130Z,19.21
2022-12-31T12:27:27.380Z,19.27
2022-12-31T12:29:53.931Z,19.08
2022-12-31T12:32:21.457Z,19.01
2022-12-31T12:34:50.153Z,19.06
2022-12-31T12:37:19.874Z,18.93
2022-12-31T12:39:46.835Z,18.97
2022-12-31T12:42:14.148Z,19.05
2022-12-31T12:44:42.020Z,19.13
2022-12-31T12:47:11.812Z,19.04
2022-12-31T12:49:39.112Z,18.91
2022-12-31T12:52:05.580Z,19.00
2022-12-31T12:54:44.536Z,18.86
2022-12-31T12:57:16.272Z,18.95
2022-12-31T13:00:01.639Z,19.00
2022-12-31T13:02:34.203Z,18.95
2022-12-31T13:05:06.814Z,18.82
2022-12-31T13:07:38.365Z,18.89
2022-12-31T13:10:27.441Z,18.82
2022-12-31T13:15:52.792Z,18.68
2022-12-31T13:18:31.592Z,18.60
2022-12-31T13:21:19.899Z,18.68
2022-12-31T13:23:48.786Z,18.77
2022-12-31T13:26:23.455Z,18.63
2022-12-31T13:28:50.533Z,18.77
2022-12-31T13:31:18.320Z,18.95
2022-12-31T13:33:47.988Z,18.67
2022-12-31T13:36:15.654Z,18.79
2022-12-31T13:38:42.561Z,18.69
2022-12-31T13:41:09.679Z,18.70
2022-12-31T13:43:43.382Z,18.78
2022-12-31T13:46:18.736Z,18.83
2022-12-31T13:48:48.686Z,18.88
2022-12-31T13:51:18.344Z,18.70
2022-12-31T13:53:48.523Z,18.58
2022-12-31T13:56:16.890Z,18.65
2022-12-31T13:58:48.683Z,18.68
2022-12-31T14:01:17.094Z,18.64
2022-12-31T14:03:43.634Z,18.43
2022-12-31T14:06:12.366Z,18.48
2022-12-31T14:08:39.685Z,18.34
2022-12-31T14:11:06.201Z,18.32
2022-12-31T14:13:51.623Z,18.24
2022-12-31T14:16:47.306Z,18.15
2022-12-31T14:19:19.025Z,18.08
2022-12-31T14:21:57.692Z,18.03
2022-12-31T14:24:53.632Z,17.92
2022-12-31T14:27:24.549Z,17.76
2022-12-31T14:29:57.569Z,17.76
2022-12-31T14:32:43.062Z,17.82
2022-12-31T14:35:16.582Z,17.83
2022-12-31T14:37:48.816Z,17.72
2022-12-31T14:40:37.488Z,17.72
2022-12-31T14:43:13.097Z,17.66
2022-12-31T14:45:47.075Z,17.68
2022-12-31T14:48:32.269Z,17.60
2022-12-31T14:50:59.297Z,17.52
2022-12-31T14:53:26.248Z,17.51
2022-12-31T14:56:02.572Z,17.52
2022-12-31T14:58:39.594Z,17.55
2022-12-31T15:01:14.963Z,17.51
2022-12-31T15:03:45.714Z,17.42
2022-12-31T15:06:25.809Z,17.24
2022-12-31T15:09:07.485Z,17.14
2022-12-31T15:11:39.917Z,16.96
2022-12-31T15:14:25.059Z,16.78
2022-12-31T15:17:00.837Z,16.60
2022-12-31T15:19:27.294Z,16.49
2022-12-31T15:21:55.612Z,16.38
2022-12-31T15:24:25.695Z,16.30
2022-12-31T15:26:53.173Z,16.23
2022-12-31T15:29:23.838Z,16.34
2022-12-31T15:31:50.343Z,16.30
2022-12-31T15:34:29.637Z,16.15
2022-12-31T15:36:57.923Z,16.11
2022-12-31T15:39:40.918Z,16.22
2022-12-31T15:42:37.912Z,16.30
2022-12-31T15:45:06.333Z,16.46
2022-12-31T15:47:37.206Z,16.48
2022-12-31T15:50:08.139Z,16.37
2022-12-31T15:52:54.915Z,16.27
2022-12-31T15:55:37.790Z,16.06
2022-12-31T15:58:05.554Z,15.88
2022-12-31T16:00:38.670Z,15.73
2022-12-31T16:03:10.597Z,15.69
2022-12-31T16:05:37.138Z,15.64
2022-12-31T16:08:03.675Z,15.57
2022-12-31T16:10:30.965Z,15.51
2022-12-31T16:12:57.646Z,15.34
2022-12-31T16:15:25.981Z,15.13
2022-12-31T16:17:59.465Z,14.97
2022-12-31T16:20:26.957Z,14.85
2022-12-31T16:22:56.268Z,14.71
2022-12-31T16:25:31.951Z,14.67
2022-12-31T16:27:59.188Z,14.74
2022-12-31T16:30:32.930Z,14.71
2022-12-31T16:33:00.997Z,14.65
2022-12-31T16:35:35.001Z,14.70
2022-12-31T16:38:11.274Z,14.64
2022-12-31T16:40:38.094Z,14.63
2022-12-31T16:43:04.686Z,14.64
2022-12-31T16:45:35.366Z,14.53
2022-12-31T16:48:14.699Z,14.52
2022-12-31T16:51:03.185Z,14.53
2022-12-31T16:53:30.597Z,14.50
2022-12-31T16:56:03.862Z,14.45
2022-12-31T16:58:31.112Z,14.44
2022-12-31T17:01:05.269Z,14.53
2022-12-31T17:03:31.885Z,14.83
2022-12-31T17:06:01.556Z,15.13
2022-12-31T17:08:29.501Z,15.37
2022-12-31T17:10:56.675Z,15.58
2022-12-31T17:13:28.419Z,15.66
2022-12-31T17:15:55.661Z,15.70
2022-12-31T17:18:23.047Z,15.82
2022-12-31T17:20:50.748Z,16.00
2022-12-31T17:23:19.983Z,15.95
2022-12-31T17:25:46.500Z,15.74
2022-12-31T17:28:22.909Z,15.60
2022-12-31T17:30:49.769Z,15.56
2022-12-31T17:33:22.511Z,15.39
2022-12-31T17:35:49.868Z,15.25
2022-12-31T17:38:22.915Z,15.12
2022-12-31T17:40:53.621Z,14.93
2022-12-31T17:43:20.738Z,14.69
2022-12-31T17:45:47.494Z,14.68
2022-12-31T17:48:14.581Z,14.78
2022-12-31T17:50:51.068Z,14.76
2022-12-31T17:53:17.773Z,15.00
2022-12-31T17:55:47.739Z,15.13
2022-12-31T17:58:18.284Z,15.37
2022-12-31T18:00:44.846Z,15.44
2022-12-31T18:03:11.612Z,15.32
2022-12-31T18:05:38.141Z,15.30
2022-12-31T18:08:04.888Z,15.25
2022-12-31T18:10:32.320Z,15.31
2022-12-31T18:12:58.925Z,15.25
2022-12-31T18:15:25.490Z,15.23
2022-12-31T18:17:52.034Z,15.34
2022-12-31T18:20:18.963Z,15.41
2022-12-31T18:22:45.453Z,15.34
2022-12-31T18:25:19.083Z,15.37
2022-12-31T18:27:45.716Z,15.69
2022-12-31T18:30:12.427Z,15.58
2022-12-31T18:32:39.166Z,15.45
2022-12-31T18:35:06.534Z,15.34
2022-12-31T18:37:33.037Z,15.20
2022-12-31T18:39:59.567Z,15.16
2022-12-31T18:42:26.307Z,14.99
2022-12-31T18:44:52.795Z,14.76
2022-12-31T18:47:19.964Z,14.68
2022-12-31T18:49:48.689Z,14.52
2022-12-31T18:52:16.683Z,14.40
2022-12-31T18:54:43.260Z,14.24
2022-12-31T18:57:12.798Z,14.15
2022-12-31T18:59:39.325Z,14.07
2022-12-31T19:02:06.126Z,14.09
2022-12-31T19:04:32.728Z,14.13
2022-12-31T19:06:59.271Z,14.19
2022-12-31T19:12:12.958Z,14.33
2022-12-31T19:14:39.493Z,14.32
2022-12-31T19:19:31.355Z,14.32
2022-12-31T19:21:57.907Z,14.29
2022-12-31T19:24:26.595Z,14.24
2022-12-31T19:26:53.524Z,14.25
2022-12-31T19:29:21.766Z,14.14
2022-12-31T19:31:48.493Z,14.19
2022-12-31T19:34:15.097Z,14.28
2022-12-31T19:36:44.066Z,14.24
2022-12-31T19:39:13.627Z,14.23
2022-12-31T19:41:41.696Z,14.14
2022-12-31T19:44:12.242Z,14.09
2022-12-31T19:46:38.763Z,14.07
2022-12-31T19:49:05.423Z,13.98
2022-12-31T19:51:31.960Z,13.90
2022-12-31T19:53:58.469Z,13.88
2022-12-31T19:56:25.011Z,13.87
2022-12-31T19:58:51.547Z,13.76
2022-12-31T20:01:21.712Z,13.86
2022-12-31T20:03:48.462Z,13.87
2022-12-31T20:06:15.105Z,13.87
2022-12-31T20:08:44.695Z,14.04
2022-12-31T20:11:12.878Z,14.22
2022-12-31T20:13:39.927Z,14.37
2022-12-31T20:16:07.490Z,14.44
2022-12-31T20:18:33.987Z,14.44
2022-12-31T20:21:00.477Z,14.44
2022-12-31T20:23:27.071Z,14.57
2022-12-31T20:25:59.866Z,14.58
2022-12-31T20:28:26.427Z,14.61
2022-12-31T20:30:53.019Z,14.66
2022-12-31T20:33:19.898Z,14.79
2022-12-31T20:35:46.440Z,14.80
2022-12-31T20:38:12.979Z,14.82
2022-12-31T20:40:46.163Z,14.76
2022-12-31T20:43:13.313Z,14.78
2022-12-31T20:45:40.935Z,14.79
2022-12-31T20:48:07.522Z,14.71
2022-12-31T20:50:34.196Z,14.78
2022-12-31T20:53:00.696Z,14.82
2022-12-31T20:55:27.439Z,14.79
2022-12-31T20:57:54.008Z,14.67
2022-12-31T21:00:20.540Z,14.63
2022-12-31T21:02:55.488Z,14.70
2022-12-31T21:05:27.286Z,14.75
2022-12-31T21:07:54.010Z,14.81
2022-12-31T21:10:20.551Z,14.77
2022-12-31T21:12:53.249Z,14.65
2022-12-31T21:15:20.533Z,14.61
2022-12-31T21:17:47.025Z,14.55
2022-12-31T21:20:13.557Z,14.63
2022-12-31T21:22:40.163Z,14.71
2022-12-31T21:25:06.879Z,14.60
2022-12-31T21:27:33.484Z,14.45
2022-12-31T21:32:46.660Z,14.36
2022-12-31T21:38:00.743Z,14.31
2022-12-31T21:40:27.757Z,14.24
2022-12-31T21:42:54.332Z,14.20
2022-12-31T21:45:20.982Z,14.11
2022-12-31T21:48:06.407Z,14.01
2022-12-31T21:50:33.181Z,14.28
2022-12-31T21:52:59.745Z,14.18
2022-12-31T21:55:45.039Z,14.43
2022-12-31T21:58:25.688Z,14.46
2022-12-31T22:01:11.756Z,14.52
2022-12-31T22:03:38.643Z,14.52
2022-12-31T22:06:10.187Z,14.50
2022-12-31T22:08:36.994Z,14.49
2022-12-31T22:11:03.530Z,14.45
2022-12-31T22:13:30.023Z,14.38
2022-12-31T22:16:03.868Z,14.38
2022-12-31T22:18:32.301Z,14.34
2022-12-31T22:21:05.696Z,14.22
2022-12-31T22:23:32.772Z,13.96
2022-12-31T22:25:59.352Z,13.89
2022-12-31T22:28:41.377Z,13.85
2022-12-31T22:31:09.180Z,13.84
2022-12-31T22:33:35.749Z,13.80
2022-12-31T22:36:03.418Z,13.84
2022-12-31T22:38:30.057Z,13.98
2022-12-31T22:41:06.742Z,14.00
2022-12-31T22:43:34.130Z,14.05
2022-12-31T22:46:05.705Z,14.02
2022-12-31T22:48:32.284Z,13.96
2022-12-31T22:50:58.788Z,13.83
2022-12-31T22:53:25.297Z,13.77
2022-12-31T22:55:53.439Z,13.76
2022-12-31T22:58:19.936Z,13.66
2022-12-31T23:00:47.001Z,13.60
2022-12-31T23:03:13.982Z,13.72
2022-12-31T23:05:40.727Z,13.82
2022-12-31T23:08:18.797Z,13.97
2022-12-31T23:11:03.800Z,13.88
2022-12-31T23:13:50.827Z,14.04
2022-12-31T23:16:36.734Z,14.08
2022-12-31T23:19:22.010Z,14.01
2022-12-31T23:22:07.353Z,13.89
2022-12-31T23:24:33.891Z,13.86
2022-12-31T23:27:00.589Z,13.84
2022-12-31T23:29:27.097Z,13.73
2022-12-31T23:31:53.670Z,13.60
2022-12-31T23:34:20.239Z,13.55
2022-12-31T23:36:46.759Z,13.46
2022-12-31T23:39:13.596Z,13.40
2022-12-31T23:41:40.264Z,13.45
2022-12-31T23:44:06.885Z,13.45
2022-12-31T23:46:33.515Z,13.50
2022-12-31T23:49:00.134Z,13.44
2022-12-31T23:51:26.700Z,13.46
2022-12-31T23:53:53.194Z,13.50
2022-12-31T23:56:23.714Z,13.49
2022-12-31T23:58:57.080Z,13.61
